createdAt,value
2019-05-21T00:00:32.600Z,98823.20
2019-05-21T00:03:02.330Z,98824.09
2019-05-21T00:05:31.983Z,98826.08
2019-05-21T00:08:01.611Z,98827.66
2019-05-21T00:10:31.204Z,98833.53
2019-05-21T00:13:00.824Z,98833.94
2019-05-21T00:15:30.453Z,98840.23
2019-05-21T00:18:00.042Z,98838.99
2019-05-21T00:20:29.700Z,98838.84
2019-05-21T00:22:59.490Z,98844.45
2019-05-21T00:25:29.095Z,98846.24
2019-05-21T00:28:19.838Z,98844.16
2019-05-21T00:31:44.233Z,98851.14
2019-05-21T00:35:08.347Z,98855.17
2019-05-21T00:38:32.585Z,98851.28
2019-05-21T00:41:57.001Z,98850.80
2019-05-21T00:44:26.750Z,98849.61
2019-05-21T00:46:56.354Z,98848.44
2019-05-21T00:49:26.047Z,98839.77
2019-05-21T00:52:07.181Z,98839.86
2019-05-21T00:54:27.121Z,98840.96
2019-05-21T00:56:56.730Z,98844.80
2019-05-21T00:59:26.340Z,98845.23
2019-05-21T01:01:55.967Z,98849.62
2019-05-21T01:04:25.584Z,98850.75
2019-05-21T01:06:55.187Z,98852.11
2019-05-21T01:09:24.832Z,98854.88
2019-05-21T01:11:54.487Z,98853.48
2019-05-21T01:14:24.168Z,98858.19
2019-05-21T01:16:53.940Z,98861.22
2019-05-21T01:19:23.559Z,98864.67
2019-05-21T01:21:53.161Z,98866.23
2019-05-21T01:24:22.858Z,98868.68
2019-05-21T01:26:52.457Z,98875.55
2019-05-21T01:29:22.068Z,98884.22
2019-05-21T01:31:51.693Z,98882.73
2019-05-21T01:34:21.288Z,98885.50
2019-05-21T01:36:51.065Z,98885.05
2019-05-21T01:39:20.730Z,98891.34
2019-05-21T01:41:50.359Z,98890.17
2019-05-21T01:44:19.977Z,98900.03
2019-05-21T01:46:49.580Z,98902.03
2019-05-21T01:49:19.172Z,98899.48
2019-05-21T01:51:48.787Z,98897.52
2019-05-21T01:54:18.389Z,98899.91
2019-05-21T01:56:48.002Z,98890.11
2019-05-21T01:59:17.637Z,98892.23
2019-05-21T02:01:47.254Z,98894.14
2019-05-21T02:04:16.861Z,98897.12
2019-05-21T02:06:49.278Z,98896.16
2019-05-21T02:09:18.680Z,98900.39
2019-05-21T02:11:48.284Z,98897.20
2019-05-21T02:14:17.896Z,98901.03
2019-05-21T02:16:47.513Z,98901.19
2019-05-21T02:19:17.132Z,98902.53
2019-05-21T02:21:46.783Z,98889.91
2019-05-21T02:24:16.383Z,98889.66
2019-05-21T02:26:45.993Z,98893.70
2019-05-21T02:29:15.603Z,98893.25
2019-05-21T02:31:45.211Z,98900.39
2019-05-21T02:34:14.817Z,98904.70
2019-05-21T02:36:44.439Z,98897.46
2019-05-21T02:39:14.054Z,98891.83
2019-05-21T02:41:43.717Z,98900.48
2019-05-21T02:44:13.306Z,98898.81
2019-05-21T02:46:42.941Z,98898.49
2019-05-21T02:49:12.527Z,98898.66
2019-05-21T02:51:42.146Z,98893.00
2019-05-21T02:54:11.769Z,98901.20
2019-05-21T02:56:41.383Z,98900.25
2019-05-21T02:59:11.415Z,98899.22
2019-05-21T03:01:48.399Z,98905.98
2019-05-21T03:04:18.007Z,98902.56
2019-05-21T03:06:47.636Z,98901.84
2019-05-21T03:09:17.227Z,98906.77
2019-05-21T03:11:46.869Z,98905.67
2019-05-21T03:14:16.502Z,98906.22
2019-05-21T03:16:46.186Z,98908.84
2019-05-21T03:19:16.730Z,98910.27
2019-05-21T03:21:46.473Z,98915.91
2019-05-21T03:24:16.094Z,98915.68
2019-05-21T03:26:45.733Z,98920.05
2019-05-21T03:29:15.317Z,98919.51
2019-05-21T03:31:44.947Z,98922.53
2019-05-21T03:34:14.528Z,98917.13
2019-05-21T03:36:44.139Z,98927.13
2019-05-21T03:39:13.744Z,98927.13
2019-05-21T03:41:43.380Z,98928.66
2019-05-21T03:44:16.099Z,98930.23
2019-05-21T03:46:46.085Z,98932.08
2019-05-21T03:49:15.687Z,98939.52
2019-05-21T03:51:45.285Z,98937.30
2019-05-21T03:54:14.975Z,98932.61
2019-05-21T03:56:44.593Z,98936.52
2019-05-21T03:59:14.224Z,98937.23
2019-05-21T04:01:43.829Z,98940.57
2019-05-21T04:04:13.457Z,98944.13
2019-05-21T04:06:51.736Z,98941.27
2019-05-21T04:09:14.383Z,98940.31
2019-05-21T04:11:44.024Z,98953.02
2019-05-21T04:14:15.277Z,98959.89
2019-05-21T04:16:47.884Z,98964.19
2019-05-21T04:19:25.181Z,98964.48
2019-05-21T04:21:54.813Z,98970.45
2019-05-21T04:24:24.404Z,98966.69
2019-05-21T04:26:54.020Z,98966.11
2019-05-21T04:29:23.650Z,98971.48
2019-05-21T04:31:53.252Z,98980.13
2019-05-21T04:34:22.870Z,98975.48
2019-05-21T04:37:09.264Z,98976.56
2019-05-21T04:39:23.861Z,98974.39
2019-05-21T04:41:53.439Z,98977.33
2019-05-21T04:44:23.110Z,98980.27
2019-05-21T04:46:52.742Z,98981.25
2019-05-21T04:49:22.337Z,98984.30
2019-05-21T04:51:51.953Z,98989.94
2019-05-21T04:54:21.634Z,98987.88
2019-05-21T04:56:51.291Z,98990.64
2019-05-21T04:59:20.895Z,98987.08
2019-05-21T05:01:50.513Z,98992.15
2019-05-21T05:04:21.834Z,98994.47
2019-05-21T05:06:51.514Z,98993.05
2019-05-21T05:09:21.113Z,98996.14
2019-05-21T05:11:50.856Z,98996.55
2019-05-21T05:14:20.482Z,99000.00
2019-05-21T05:16:50.108Z,99003.48
2019-05-21T05:19:19.804Z,99008.89
2019-05-21T05:21:49.412Z,99019.14
2019-05-21T05:24:19.045Z,99018.28
2019-05-21T05:26:50.285Z,99023.42
2019-05-21T05:29:19.869Z,99025.03
2019-05-21T05:31:49.479Z,99019.97
2019-05-21T05:34:19.119Z,99028.95
2019-05-21T05:36:48.894Z,99031.33
2019-05-21T05:39:18.515Z,99040.64
2019-05-21T05:41:48.179Z,99039.52
2019-05-21T05:44:17.757Z,99039.88
2019-05-21T05:46:47.486Z,99042.05
2019-05-21T05:49:18.745Z,99042.81
2019-05-21T05:51:48.376Z,99042.39
2019-05-21T05:54:18.069Z,99041.13
2019-05-21T05:56:47.697Z,99039.77
2019-05-21T05:59:17.323Z,99044.66
2019-05-21T06:01:46.979Z,99049.29
2019-05-21T06:04:16.594Z,99050.66
2019-05-21T06:06:46.392Z,99053.38
2019-05-21T06:09:15.986Z,99061.96
2019-05-21T06:11:45.613Z,99064.50
2019-05-21T06:14:15.219Z,99068.23
2019-05-21T06:16:44.821Z,99069.24
2019-05-21T06:19:14.457Z,99069.89
2019-05-21T06:21:44.079Z,99066.72
2019-05-21T06:24:13.884Z,99064.89
2019-05-21T06:26:43.652Z,99064.42
2019-05-21T06:29:13.265Z,99062.34
2019-05-21T06:31:42.872Z,99061.95
2019-05-21T06:34:12.479Z,99064.53
2019-05-21T06:36:42.088Z,99061.22
2019-05-21T06:39:11.728Z,99067.88
2019-05-21T06:41:41.324Z,99067.80
2019-05-21T06:44:10.946Z,99071.13
2019-05-21T06:46:40.571Z,99074.70
2019-05-21T06:49:10.213Z,99078.02
2019-05-21T06:51:39.823Z,99081.73
2019-05-21T06:54:12.522Z,99093.73
2019-05-21T06:56:42.124Z,99104.37
2019-05-21T06:59:11.729Z,99105.28
2019-05-21T07:01:41.364Z,99106.85
2019-05-21T07:04:11.038Z,99108.59
2019-05-21T07:06:40.672Z,99116.25
2019-05-21T07:09:10.280Z,99115.59
2019-05-21T07:11:39.919Z,99115.82
2019-05-21T07:14:09.554Z,99115.79
2019-05-21T07:16:39.187Z,99124.23
2019-05-21T07:19:08.785Z,99122.44
2019-05-21T07:21:38.517Z,99121.45
2019-05-21T07:24:08.157Z,99120.50
2019-05-21T07:26:37.837Z,99127.95
2019-05-21T07:29:07.454Z,99129.25
2019-05-21T07:31:37.081Z,99132.53
2019-05-21T07:34:06.693Z,99135.88
2019-05-21T07:36:36.314Z,99140.84
2019-05-21T07:39:07.697Z,99144.55
2019-05-21T07:41:37.320Z,99141.27
2019-05-21T07:44:06.969Z,99133.96
2019-05-21T07:46:39.523Z,99143.00
2019-05-21T07:49:07.991Z,99149.42
2019-05-21T07:51:37.567Z,99151.22
2019-05-21T07:54:07.217Z,99150.73
2019-05-21T07:56:36.861Z,99149.03
2019-05-21T07:59:06.922Z,99152.32
2019-05-21T08:01:36.561Z,99154.53
2019-05-21T08:04:06.196Z,99157.59
2019-05-21T08:06:35.927Z,99162.63
2019-05-21T08:09:14.066Z,99155.04
2019-05-21T08:11:38.835Z,99155.09
2019-05-21T08:14:08.444Z,99155.52
2019-05-21T08:16:38.048Z,99156.84
2019-05-21T08:19:07.701Z,99165.39
2019-05-21T08:21:37.342Z,99161.72
2019-05-21T08:24:07.008Z,99164.55
2019-05-21T08:26:36.618Z,99159.82
2019-05-21T08:29:06.212Z,99156.89
2019-05-21T08:31:35.896Z,99167.55
2019-05-21T08:34:05.889Z,99172.66
2019-05-21T08:36:35.501Z,99167.47
2019-05-21T08:39:07.825Z,99171.84
2019-05-21T08:41:37.500Z,99168.09
2019-05-21T08:44:07.109Z,99175.48
2019-05-21T08:46:37.406Z,99176.58
2019-05-21T08:49:07.001Z,99185.17
2019-05-21T08:51:37.421Z,99182.02
2019-05-21T08:54:07.041Z,99188.54
2019-05-21T08:56:36.640Z,99186.34
2019-05-21T08:59:06.333Z,99187.95
2019-05-21T09:01:36.099Z,99188.52
2019-05-21T09:04:06.016Z,99185.13
2019-05-21T09:06:35.686Z,99190.71
2019-05-21T09:09:06.917Z,99193.16
2019-05-21T09:11:36.561Z,99199.45
2019-05-21T09:14:06.321Z,99195.48
2019-05-21T09:16:36.011Z,99204.19
2019-05-21T09:19:05.809Z,99196.03
2019-05-21T09:21:35.577Z,99200.55
2019-05-21T09:24:05.273Z,99205.27
2019-05-21T09:26:34.888Z,99205.38
2019-05-21T09:29:04.703Z,99206.75
2019-05-21T09:31:34.310Z,99207.84
2019-05-21T09:34:03.952Z,99198.30
2019-05-21T09:36:33.578Z,99206.16
2019-05-21T09:39:04.789Z,99208.09
2019-05-21T09:41:34.456Z,99209.63
2019-05-21T09:44:05.149Z,99206.83
2019-05-21T09:46:34.873Z,99210.05
2019-05-21T09:49:04.544Z,99208.23
2019-05-21T09:51:34.221Z,99217.83
2019-05-21T09:54:03.852Z,99222.70
2019-05-21T09:56:34.842Z,99223.74
2019-05-21T09:59:09.874Z,99211.59
2019-05-21T10:01:47.821Z,99221.44
2019-05-21T10:04:16.434Z,99226.14
2019-05-21T10:06:46.132Z,99218.06
2019-05-21T10:09:20.334Z,99227.16
2019-05-21T10:11:49.919Z,99223.94
2019-05-21T10:14:21.724Z,99225.84
2019-05-21T10:16:51.334Z,99221.59
2019-05-21T10:19:21.040Z,99225.48
2019-05-21T10:21:50.646Z,99219.83
2019-05-21T10:24:20.242Z,99221.01
2019-05-21T10:26:50.011Z,99228.22
2019-05-21T10:29:19.660Z,99232.34
2019-05-21T10:31:49.230Z,99237.98
2019-05-21T10:34:25.197Z,99234.09
2019-05-21T10:36:58.334Z,99237.00
2019-05-21T10:39:35.426Z,99235.48
2019-05-21T10:42:05.181Z,99232.36
2019-05-21T10:44:39.044Z,99237.80
2019-05-21T10:47:08.750Z,99242.53
2019-05-21T10:49:38.358Z,99236.83
2019-05-21T10:52:08.051Z,99237.96
2019-05-21T10:54:37.669Z,99241.27
2019-05-21T10:57:07.510Z,99240.04
2019-05-21T10:59:37.190Z,99240.19
2019-05-21T11:02:24.535Z,99255.05
2019-05-21T11:05:04.304Z,99260.55
2019-05-21T11:07:33.877Z,99264.69
2019-05-21T11:10:04.067Z,99261.63
2019-05-21T11:12:33.731Z,99265.62
2019-05-21T11:15:04.682Z,99268.77
2019-05-21T11:17:49.651Z,99260.98
2019-05-21T11:20:08.646Z,99259.44
2019-05-21T11:22:38.342Z,99258.02
2019-05-21T11:25:08.765Z,99254.80
2019-05-21T11:27:38.446Z,99260.73
2019-05-21T11:30:14.393Z,99259.03
2019-05-21T11:32:44.056Z,99259.20
2019-05-21T11:35:14.562Z,99251.86
2019-05-21T11:37:47.653Z,99254.36
2019-05-21T11:40:17.852Z,99266.73
2019-05-21T11:42:47.455Z,99263.59
2019-05-21T11:45:31.519Z,99271.39
2019-05-21T11:47:50.038Z,99274.59
2019-05-21T11:50:20.072Z,99271.20
2019-05-21T11:52:49.747Z,99265.73
2019-05-21T11:55:19.391Z,99269.12
2019-05-21T11:57:49.133Z,99275.07
2019-05-21T12:00:21.827Z,99268.08
2019-05-21T12:02:51.558Z,99278.50
2019-05-21T12:05:21.178Z,99268.98
2019-05-21T12:07:50.777Z,99274.08
2019-05-21T12:10:20.462Z,99276.63
2019-05-21T12:12:50.093Z,99264.89
2019-05-21T12:15:20.112Z,99269.56
2019-05-21T12:17:49.746Z,99270.78
2019-05-21T12:20:35.471Z,99269.27
2019-05-21T12:22:51.417Z,99272.60
2019-05-21T12:25:23.541Z,99273.69
2019-05-21T12:27:52.505Z,99272.47
2019-05-21T12:30:22.686Z,99262.45
2019-05-21T12:32:52.324Z,99266.55
2019-05-21T12:35:25.206Z,99261.22
2019-05-21T12:37:54.837Z,99262.13
2019-05-21T12:40:24.730Z,99255.69
2019-05-21T12:42:54.516Z,99252.08
2019-05-21T12:45:24.131Z,99252.41
2019-05-21T12:47:53.741Z,99257.14
2019-05-21T12:50:24.947Z,99259.12
2019-05-21T12:52:54.598Z,99262.57
2019-05-21T12:55:24.329Z,99266.95
2019-05-21T12:57:53.974Z,99266.92
2019-05-21T13:00:25.435Z,99274.44
2019-05-21T13:02:55.130Z,99276.95
2019-05-21T13:05:24.900Z,99279.47
2019-05-21T13:07:54.565Z,99279.30
2019-05-21T13:10:26.891Z,99282.09
2019-05-21T13:12:55.519Z,99282.73
2019-05-21T13:15:25.293Z,99285.02
2019-05-21T13:17:55.067Z,99280.83
2019-05-21T13:20:25.060Z,99288.91
2019-05-21T13:22:54.824Z,99290.60
2019-05-21T13:25:24.491Z,99284.59
2019-05-21T13:27:57.282Z,99291.56
2019-05-21T13:30:25.660Z,99290.94
2019-05-21T13:32:59.033Z,99295.66
2019-05-21T13:35:28.719Z,99296.06
2019-05-21T13:37:58.397Z,99287.31
2019-05-21T13:40:28.914Z,99280.19
2019-05-21T13:42:58.738Z,99287.09
2019-05-21T13:45:28.406Z,99288.64
2019-05-21T13:47:58.357Z,99290.53
2019-05-21T13:50:27.976Z,99288.03
2019-05-21T13:52:57.578Z,99299.09
2019-05-21T13:55:27.264Z,99300.20
2019-05-21T13:57:57.099Z,99295.64
2019-05-21T14:00:29.083Z,99303.32
2019-05-21T14:02:58.898Z,99303.88
2019-05-21T14:05:28.933Z,99299.84
2019-05-21T14:07:58.749Z,99301.10
2019-05-21T14:10:29.022Z,99299.48
2019-05-21T14:12:58.706Z,99296.17
2019-05-21T14:15:28.300Z,99293.95
2019-05-21T14:17:58.104Z,99303.41
2019-05-21T14:20:27.785Z,99310.47
2019-05-21T14:22:57.547Z,99306.59
2019-05-21T14:25:27.138Z,99306.02
2019-05-21T14:27:56.899Z,99312.91
2019-05-21T14:30:26.599Z,99305.39
2019-05-21T14:32:56.245Z,99309.22
2019-05-21T14:35:25.980Z,99310.61
2019-05-21T14:37:55.654Z,99317.15
2019-05-21T14:40:31.636Z,99311.95
2019-05-21T14:43:00.311Z,99310.98
2019-05-21T14:45:33.768Z,99303.34
2019-05-21T14:48:00.570Z,99325.53
2019-05-21T14:50:30.163Z,99328.94
2019-05-21T14:53:00.206Z,99321.42
2019-05-21T14:55:29.942Z,99312.03
2019-05-21T14:57:59.530Z,99310.60
2019-05-21T15:00:37.520Z,99313.00
2019-05-21T15:03:07.180Z,99314.52
2019-05-21T15:05:37.334Z,99318.17
2019-05-21T15:08:07.144Z,99313.06
2019-05-21T15:10:47.934Z,99315.70
2019-05-21T15:13:08.287Z,99312.75
2019-05-21T15:15:39.523Z,99324.77
2019-05-21T15:18:09.742Z,99326.77
2019-05-21T15:20:57.366Z,99323.77
2019-05-21T15:23:33.421Z,99330.16
2019-05-21T15:26:03.152Z,99330.95
2019-05-21T15:28:33.553Z,99321.31
2019-05-21T15:31:03.305Z,99323.92
2019-05-21T15:33:32.980Z,99328.59
2019-05-21T15:36:02.689Z,99329.12
2019-05-21T15:38:48.773Z,99337.78
2019-05-21T15:41:10.544Z,99337.84
2019-05-21T15:43:37.991Z,99341.45
2019-05-21T15:46:07.599Z,99343.89
2019-05-21T15:48:37.230Z,99346.86
2019-05-21T15:51:06.920Z,99343.98
2019-05-21T15:53:36.699Z,99349.26
2019-05-21T15:56:06.313Z,99350.27
2019-05-21T15:58:35.943Z,99351.20
2019-05-21T16:01:05.781Z,99349.20
2019-05-21T16:03:35.408Z,99354.16
2019-05-21T16:06:05.338Z,99358.31
2019-05-21T16:08:35.245Z,99359.88
2019-05-21T16:11:05.401Z,99363.92
2019-05-21T16:13:35.070Z,99365.52
2019-05-21T16:16:05.066Z,99368.51
2019-05-21T16:18:34.713Z,99373.06
2019-05-21T16:21:04.354Z,99372.08
2019-05-21T16:23:33.951Z,99377.39
2019-05-21T16:26:03.582Z,99381.54
2019-05-21T16:28:33.305Z,99382.39
2019-05-21T16:31:02.875Z,99383.21
2019-05-21T16:33:32.535Z,99396.06
2019-05-21T16:36:03.114Z,99394.80
2019-05-21T16:38:32.685Z,99397.23
2019-05-21T16:41:02.485Z,99400.08
2019-05-21T16:43:32.226Z,99399.09
2019-05-21T16:46:01.835Z,99403.38
2019-05-21T16:48:34.427Z,99401.96
2019-05-21T16:51:04.490Z,99401.89
2019-05-21T16:53:34.103Z,99401.63
2019-05-21T16:56:03.762Z,99413.50
2019-05-21T16:58:33.485Z,99410.79
2019-05-21T17:01:04.877Z,99409.55
2019-05-21T17:03:36.515Z,99415.61
2019-05-21T17:06:05.988Z,99411.33
2019-05-21T17:08:35.723Z,99422.95
2019-05-21T17:11:05.627Z,99423.05
2019-05-21T17:13:35.246Z,99418.33
2019-05-21T17:16:05.615Z,99426.84
2019-05-21T17:18:35.199Z,99429.66
2019-05-21T17:21:04.977Z,99438.96
2019-05-21T17:23:34.595Z,99433.11
2019-05-21T17:26:04.417Z,99441.34
2019-05-21T17:28:34.019Z,99444.39
2019-05-21T17:31:03.904Z,99448.62
2019-05-21T17:33:33.698Z,99451.23
2019-05-21T17:36:03.666Z,99446.70
2019-05-21T17:38:33.457Z,99455.98
2019-05-21T17:41:03.462Z,99452.19
2019-05-21T17:43:33.265Z,99458.78
2019-05-21T17:46:02.925Z,99472.11
2019-05-21T17:48:32.563Z,99468.21
2019-05-21T17:51:02.267Z,99476.38
2019-05-21T17:53:31.897Z,99476.38
2019-05-21T17:56:04.273Z,99488.04
2019-05-21T17:58:33.981Z,99494.12
2019-05-21T18:01:08.145Z,99502.08
2019-05-21T18:03:37.831Z,99505.98
2019-05-21T18:06:08.377Z,99513.50
2019-05-21T18:08:38.396Z,99524.21
2019-05-21T18:11:10.397Z,99528.44
2019-05-21T18:13:40.271Z,99524.42
2019-05-21T18:16:09.957Z,99530.59
2019-05-21T18:18:39.869Z,99538.30
2019-05-21T18:21:11.271Z,99530.66
2019-05-21T18:23:41.546Z,99548.91
2019-05-21T18:26:11.134Z,99543.34
2019-05-21T18:28:40.936Z,99552.65
2019-05-21T18:31:10.950Z,99567.13
2019-05-21T18:33:40.641Z,99566.46
2019-05-21T18:36:10.265Z,99570.34
2019-05-21T18:38:39.875Z,99568.05
2019-05-21T18:41:09.485Z,99573.98
2019-05-21T18:43:39.192Z,99572.28
2019-05-21T18:46:08.769Z,99574.23
2019-05-21T18:48:38.448Z,99572.06
2019-05-21T18:51:08.093Z,99581.50
2019-05-21T18:53:37.781Z,99594.59
2019-05-21T18:56:07.387Z,99596.09
2019-05-21T18:58:37.085Z,99590.28
2019-05-21T19:01:06.887Z,99596.30
2019-05-21T19:03:36.897Z,99593.81
2019-05-21T19:06:06.663Z,99600.86
2019-05-21T19:08:36.374Z,99605.76
2019-05-21T19:11:05.979Z,99611.31
2019-05-21T19:13:37.912Z,99611.99
2019-05-21T19:16:07.566Z,99632.72
2019-05-21T19:18:37.183Z,99634.97
2019-05-21T19:21:06.795Z,99643.70
2019-05-21T19:23:36.452Z,99642.66
2019-05-21T19:26:06.373Z,99656.73
2019-05-21T19:28:35.995Z,99657.32
2019-05-21T19:31:05.614Z,99665.17
2019-05-21T19:33:35.419Z,99666.06
2019-05-21T19:36:05.150Z,99672.66
2019-05-21T19:38:37.170Z,99676.28
2019-05-21T19:41:06.091Z,99684.34
2019-05-21T19:43:35.715Z,99691.03
2019-05-21T19:46:05.325Z,99689.86
2019-05-21T19:48:35.066Z,99693.48
2019-05-21T19:51:04.999Z,99703.47
2019-05-21T19:53:34.641Z,99708.23
2019-05-21T19:56:04.248Z,99710.70
2019-05-21T19:58:34.183Z,99718.22
2019-05-21T20:01:04.660Z,99712.03
2019-05-21T20:03:34.472Z,99725.41
2019-05-21T20:06:07.898Z,99737.31
2019-05-21T20:08:37.514Z,99733.33
2019-05-21T20:11:08.013Z,99740.37
2019-05-21T20:13:37.655Z,99731.09
2019-05-21T20:16:08.426Z,99719.41
2019-05-21T20:18:38.145Z,99739.91
2019-05-21T20:21:10.679Z,99736.16
2019-05-21T20:23:40.861Z,99732.95
2019-05-21T20:26:16.157Z,99734.31
2019-05-21T20:28:48.170Z,99732.47
2019-05-21T20:31:17.992Z,99733.98
2019-05-21T20:33:49.768Z,99738.62
2019-05-21T20:36:19.715Z,99741.78
2019-05-21T20:38:49.572Z,99737.37
2019-05-21T20:41:19.181Z,99742.92
2019-05-21T20:43:58.708Z,99748.80
2019-05-21T20:46:20.786Z,99750.19
2019-05-21T20:48:52.648Z,99748.92
2019-05-21T20:51:22.656Z,99747.44
2019-05-21T20:53:52.754Z,99746.96
2019-05-21T20:56:22.549Z,99751.86
2019-05-21T20:58:52.685Z,99742.55
2019-05-21T21:01:22.326Z,99741.52
2019-05-21T21:03:52.162Z,99736.83
2019-05-21T21:06:34.944Z,99738.91
2019-05-21T21:08:56.246Z,99735.73
2019-05-21T21:11:26.633Z,99739.34
2019-05-21T21:13:56.816Z,99736.17
2019-05-21T21:16:27.553Z,99741.97
2019-05-21T21:18:57.237Z,99741.14
2019-05-21T21:21:27.031Z,99734.43
2019-05-21T21:23:56.904Z,99738.59
2019-05-21T21:26:27.091Z,99747.41
2019-05-21T21:28:56.864Z,99751.59
2019-05-21T21:31:26.504Z,99756.17
2019-05-21T21:33:56.894Z,99763.11
2019-05-21T21:36:26.763Z,99766.14
2019-05-21T21:38:56.362Z,99769.64
2019-05-21T21:41:26.480Z,99775.62
2019-05-21T21:43:56.330Z,99774.31
2019-05-21T21:46:25.942Z,99781.30
2019-05-21T21:48:55.649Z,99785.80
2019-05-21T21:51:25.909Z,99779.45
2019-05-21T21:53:57.151Z,99782.50
2019-05-21T21:56:29.427Z,99781.47
2019-05-21T21:58:59.052Z,99770.63
2019-05-21T22:01:46.413Z,99771.21
2019-05-21T22:04:21.802Z,99764.14
2019-05-21T22:06:52.978Z,99772.70
2019-05-21T22:09:27.368Z,99769.91
2019-05-21T22:11:57.491Z,99768.81
2019-05-21T22:14:28.167Z,99774.33
2019-05-21T22:16:58.060Z,99774.05
2019-05-21T22:19:28.332Z,99778.52
2019-05-21T22:21:58.023Z,99778.03
2019-05-21T22:24:28.856Z,99777.09
2019-05-21T22:26:58.965Z,99779.17
2019-05-21T22:29:28.813Z,99785.98
2019-05-21T22:31:58.508Z,99786.95
2019-05-21T22:34:28.654Z,99788.64
2019-05-21T22:37:00.977Z,99795.45
2019-05-21T22:39:32.310Z,99798.17
2019-05-21T22:42:03.308Z,99796.36
2019-05-21T22:44:34.506Z,99797.30
2019-05-21T22:47:05.656Z,99795.67
2019-05-21T22:49:35.552Z,99813.05
2019-05-21T22:52:05.324Z,99809.78
2019-05-21T22:54:34.916Z,99810.27
2019-05-21T22:57:09.160Z,99808.52
2019-05-21T22:59:38.930Z,99809.48
2019-05-21T23:02:10.581Z,99805.89
2019-05-21T23:04:40.381Z,99804.52
2019-05-21T23:07:11.974Z,99805.63
2019-05-21T23:09:41.666Z,99800.19
2019-05-21T23:12:11.308Z,99798.11
2019-05-21T23:14:41.341Z,99791.45
2019-05-21T23:17:11.987Z,99798.59
2019-05-21T23:19:41.947Z,99805.23
2019-05-21T23:22:16.275Z,99796.30
2019-05-21T23:24:48.161Z,99794.73
2019-05-21T23:27:17.958Z,99787.64
2019-05-21T23:29:47.566Z,99789.97
2019-05-21T23:32:17.463Z,99793.83
2019-05-21T23:34:47.541Z,99785.17
2019-05-21T23:37:25.071Z,99796.45
2019-05-21T23:39:55.795Z,99795.42
2019-05-21T23:42:29.892Z,99796.22
2019-05-21T23:44:57.832Z,99796.09
2019-05-21T23:47:27.681Z,99786.59
2019-05-21T23:49:57.419Z,99796.76
2019-05-21T23:52:27.656Z,99793.95
2019-05-21T23:54:57.966Z,99796.19
2019-05-21T23:57:28.407Z,99794.60
2019-05-21T23:59:58.393Z,99792.43
